Time;durP1;ratioP1;P1;durP2;ratioP2;P2;SDS_P1;SDS_P2;PMS_P1;PMS_P2;Temp;Humidity;BMP_temperature;BMP_pressure;BME280_temperature;BME280_humidity;BME280_pressure;Samples;Min_cycle;Max_cycle;Signal;HPM_P1;HPM_P2
2022/06/01 07:29:38;;;;;;;2.28;1.92;;;;;;;32.86;36.07;91094.97;5018893;28;20067;-68
2022/06/01 07:32:04;;;;;;;2.08;1.80;;;;;;;34.01;35.30;91098.91;5028571;28;20049;-68
2022/06/01 07:34:29;;;;;;;3.45;2.30;;;;;;;34.14;35.77;91099.59;5032157;28;20033;-68
2022/06/01 07:43:05;;;;;;;52.20;31.48;;;;;;;34.73;35.56;91091.47;5026984;28;20457;-68
2022/06/01 07:45:08;;;;;;;1.90;1.80;;;;;;;35.92;33.41;91094.47;5017098;28;20044;-67
2022/06/01 07:47:34;;;;;;;5.03;2.70;;;;;;;37.89;31.67;91098.59;5024213;28;20022;-70
2022/06/01 07:49:59;;;;;;;2.67;2.30;;;;;;;37.59;31.50;91100.50;5031731;28;20029;-70
2022/06/01 07:52:25;;;;;;;2.45;2.20;;;;;;;37.99;31.89;91094.47;5016373;28;20105;-69
2022/06/01 07:54:54;;;;;;;2.72;1.60;;;;;;;35.15;34.61;91094.53;5011741;28;20068;-71
2022/06/01 07:57:19;;;;;;;3.33;2.53;;;;;;;35.61;35.24;91097.38;5010988;28;20024;-71
2022/06/01 07:59:45;;;;;;;3.53;2.35;;;;;;;33.53;36.83;91103.75;5011643;28;20034;-70
2022/06/01 08:02:10;;;;;;;4.40;2.67;;;;;;;32.90;36.68;91101.91;5011959;28;20136;-70
2022/06/01 08:04:37;;;;;;;2.88;2.40;;;;;;;33.91;37.16;91094.53;5011470;28;20038;-71
2022/06/01 08:07:04;;;;;;;3.20;2.08;;;;;;;37.54;33.38;91106.69;5011364;28;20022;-71
2022/06/01 08:09:29;;;;;;;3.65;2.75;;;;;;;37.50;32.75;91092.22;5011551;28;20108;-69
2022/06/01 08:14:39;;;;;;;5.78;2.13;;;;;;;38.25;31.98;91102.28;5011425;28;20514;-71
2022/06/01 08:17:04;;;;;;;2.03;1.67;;;;;;;37.95;32.77;91098.69;5011135;28;20025;-69
2022/06/01 08:19:30;;;;;;;3.85;2.10;;;;;;;37.71;33.54;91102.22;5011595;28;20122;-70
2022/06/01 08:21:55;;;;;;;1.98;1.80;;;;;;;36.59;33.33;91108.03;5011303;28;20404;-71
2022/06/01 08:24:21;;;;;;;4.53;2.20;;;;;;;37.42;33.72;91102.16;5011285;28;20511;-70
2022/06/01 08:26:46;;;;;;;3.03;1.70;;;;;;;38.18;31.25;91103.41;5010799;28;20022;-70
2022/06/01 08:29:11;;;;;;;1.95;1.60;;;;;;;38.55;32.32;91109.41;5010282;28;20483;-70
2022/06/01 08:31:37;;;;;;;7.82;2.30;;;;;;;38.84;29.76;91116.22;5011072;28;20138;-70
2022/06/01 08:34:04;;;;;;;1.67;1.30;;;;;;;38.30;31.45;91107.94;5011160;28;20036;-71
2022/06/01 08:36:29;;;;;;;6.35;2.22;;;;;;;39.16;31.19;91108.88;5010169;28;20046;-71
2022/06/01 08:38:55;;;;;;;1.73;1.52;;;;;;;39.18;28.95;91117.50;5011277;28;20034;-71
2022/06/01 08:41:26;;;;;;;2.90;1.80;;;;;;;37.90;30.79;91097.34;5010028;28;20523;-72
2022/06/01 08:43:58;;;;;;;6.47;2.58;;;;;;;33.62;36.67;91101.06;5011517;28;20543;-71
2022/06/01 08:46:25;;;;;;;2.50;1.75;;;;;;;36.06;33.07;91109.69;5014827;28;20526;-71
2022/06/01 08:48:59;;;;;;;4.03;1.75;;;;;;;36.71;31.33;91100.00;5015250;28;20454;-71
2022/06/01 08:51:27;;;;;;;2.85;1.90;;;;;;;36.89;32.50;91102.72;5015055;28;20042;-72
2022/06/01 08:53:53;;;;;;;2.63;1.52;;;;;;;37.04;31.52;91094.47;5015037;28;20117;-70
2022/06/01 08:56:34;;;;;;;2.88;1.98;;;;;;;34.44;33.70;91106.41;5014476;28;20104;-70
2022/06/01 08:59:26;;;;;;;1.52;1.38;;;;;;;36.45;31.90;91105.16;5014962;28;20030;-70
2022/06/01 09:02:15;;;;;;;2.58;1.67;;;;;;;35.10;32.10;91106.19;5014934;28;20107;-71
2022/06/01 09:04:49;;;;;;;3.20;1.63;;;;;;;35.81;32.40;91102.44;5014823;28;20053;-70
2022/06/01 09:07:28;;;;;;;2.92;2.00;;;;;;;35.00;32.45;91105.38;5014601;28;20056;-70
2022/06/01 09:10:23;;;;;;;2.35;2.00;;;;;;;37.96;29.55;91106.53;5014714;28;20559;-71
2022/06/01 09:13:04;;;;;;;1.40;1.30;;;;;;;39.26;28.86;91113.06;5014537;28;20428;-72
2022/06/01 09:15:38;;;;;;;6.80;1.85;;;;;;;40.30;26.64;91103.00;5014488;28;20071;-70
2022/06/01 09:18:04;;;;;;;1.98;1.30;;;;;;;37.89;29.40;91100.59;5014630;28;20095;-72
2022/06/01 09:23:15;;;;;;;1.35;1.25;;;;;;;39.06;28.36;91096.31;5014644;28;20065;-70
2022/06/01 09:25:52;;;;;;;3.67;1.45;;;;;;;37.80;28.64;91084.00;5013767;28;20040;-69
2022/06/01 09:28:21;;;;;;;2.00;1.40;;;;;;;37.60;29.63;91090.91;5014409;28;20087;-70
2022/06/01 09:31:02;;;;;;;3.05;1.50;;;;;;;36.50;30.46;91094.22;5013903;28;20107;-70
2022/06/01 09:33:37;;;;;;;1.55;1.40;;;;;;;37.55;29.46;91085.22;5014264;28;20026;-69
2022/06/01 09:36:09;;;;;;;16.55;9.93;;;;;;;38.01;29.64;91089.19;5014129;28;20470;-70
2022/06/01 09:38:39;;;;;;;1.35;1.17;;;;;;;40.02;26.52;91090.78;5014226;28;20025;-70
2022/06/01 09:41:23;;;;;;;2.22;1.70;;;;;;;40.79;26.38;91089.25;5013560;28;20037;-70
2022/06/01 09:43:54;;;;;;;2.83;1.23;;;;;;;39.47;26.50;91089.59;5013916;28;20100;-70
2022/06/01 09:46:35;;;;;;;2.47;1.55;;;;;;;39.09;27.53;91078.66;5013802;28;20034;-71
2022/06/01 09:49:17;;;;;;;1.90;1.40;;;;;;;39.89;26.66;91087.56;5013738;28;20034;-71
2022/06/01 09:51:43;;;;;;;2.40;1.50;;;;;;;39.68;26.55;91084.03;5014052;28;20121;-71
2022/06/01 09:54:30;;;;;;;6.28;2.58;;;;;;;34.86;32.80;91077.53;5013823;28;20038;-71
2022/06/01 09:56:55;;;;;;;3.28;1.63;;;;;;;35.40;31.02;91072.16;5013082;28;20498;-71
2022/06/01 10:08:12;;;;;;;4.82;1.80;;;;;;;34.91;30.62;91079.72;5013687;28;20036;-70
2022/06/01 10:10:39;;;;;;;3.40;1.65;;;;;;;34.25;32.92;91066.06;5012961;28;20026;-69
2022/06/01 10:13:06;;;;;;;2.10;1.83;;;;;;;32.55;33.07;91064.44;5013433;28;20499;-69
2022/06/01 10:15:45;;;;;;;7.82;3.13;;;;;;;35.32;31.54;91053.50;5013700;28;20130;-70
2022/06/01 10:18:21;;;;;;;1.77;1.58;;;;;;;35.07;33.30;91066.41;5013408;28;20399;-70
2022/06/01 10:20:55;;;;;;;2.30;1.50;;;;;;;32.59;34.47;91065.09;5013401;28;20061;-69
2022/06/01 10:23:54;;;;;;;3.22;1.75;;;;;;;32.30;35.68;91066.00;5013114;28;20026;-71
2022/06/01 10:26:25;;;;;;;1.60;1.50;;;;;;;31.64;37.80;91073.00;5012794;28;20171;-70
2022/06/01 10:28:54;;;;;;;1.58;1.48;;;;;;;34.37;33.13;91069.97;5013189;28;20828;-70
2022/06/01 10:31:38;;;;;;;1.55;1.45;;;;;;;36.88;30.96;91065.91;5012934;28;20097;-69
2022/06/01 10:34:09;;;;;;;1.90;1.40;;;;;;;35.84;30.98;91065.53;5013431;28;20038;-69
2022/06/01 10:36:43;;;;;;;4.97;2.63;;;;;;;35.88;32.41;91061.41;5012906;28;20037;-71
2022/06/01 10:39:18;;;;;;;1.63;1.52;;;;;;;36.30;29.49;91064.25;5012948;28;20022;-66
2022/06/01 10:41:48;;;;;;;1.83;1.40;;;;;;;36.22;30.48;91065.03;5013142;28;20507;-64
2022/06/01 10:44:44;;;;;;;6.13;5.63;;;;;;;35.83;28.81;91064.00;5013312;28;20030;-66
2022/06/01 10:47:18;;;;;;;1.40;1.30;;;;;;;33.11;33.59;91061.06;4964772;28;20046;-65
2022/06/01 10:49:51;;;;;;;2.97;1.33;;;;;;;33.02;32.48;91057.00;5012990;28;20033;-64
2022/06/01 10:52:35;;;;;;;1.50;1.40;;;;;;;32.32;32.74;91062.78;4992088;28;20169;-64
2022/06/01 10:55:25;;;;;;;1.73;1.52;;;;;;;30.99;34.15;91053.91;5004878;28;20030;-64
2022/06/01 10:57:51;;;;;;;1.40;1.23;;;;;;;29.62;37.25;91060.16;5017861;28;20620;-64
2022/06/01 11:00:20;;;;;;;5.55;3.47;;;;;;;29.70;36.39;91050.59;5020385;28;20060;-64
2022/06/01 11:03:08;;;;;;;2.05;1.50;;;;;;;30.84;34.96;91058.22;5012785;28;20038;-64
2022/06/01 11:06:11;;;;;;;1.48;1.15;;;;;;;31.41;32.91;91056.75;5012634;28;20041;-64
2022/06/01 11:09:09;;;;;;;2.10;1.70;;;;;;;32.91;33.49;91050.31;4970430;28;20046;-64
2022/06/01 11:11:51;;;;;;;1.77;1.60;;;;;;;34.08;32.01;91059.22;4975386;28;20276;-65
2022/06/01 11:14:20;;;;;;;3.67;1.50;;;;;;;31.67;32.76;91052.09;5012648;28;20030;-64
2022/06/01 11:17:04;;;;;;;2.17;1.33;;;;;;;29.16;37.54;91061.03;5012421;28;20030;-63
2022/06/01 11:19:57;;;;;;;5.85;1.48;;;;;;;28.76;37.69;91049.25;5012411;28;20480;-64
2022/06/01 11:22:25;;;;;;;1.90;1.10;;;;;;;30.16;35.67;91042.59;5014928;28;20030;-64
2022/06/01 11:25:11;;;;;;;1.40;1.30;;;;;;;32.29;35.36;91044.41;5022513;28;20040;-64
2022/06/01 11:27:51;;;;;;;3.30;1.63;;;;;;;35.16;31.47;91031.69;5022318;28;20033;-65
2022/06/01 11:30:20;;;;;;;2.03;1.80;;;;;;;35.67;32.41;91040.94;5022335;28;20112;-65
2022/06/01 11:33:04;;;;;;;9.82;5.80;;;;;;;35.22;32.06;91040.91;5021690;28;20045;-66
2022/06/01 11:35:29;;;;;;;3.80;2.22;;;;;;;37.31;31.38;91049.19;5021939;28;20018;-66
2022/06/01 11:38:13;;;;;;;4.68;3.05;;;;;;;37.19;29.03;91048.91;5020297;28;20109;-66
2022/06/01 11:40:55;;;;;;;2.67;1.70;;;;;;;37.75;29.88;91044.53;5023449;28;20483;-67
2022/06/01 11:43:38;;;;;;;1.40;1.30;;;;;;;37.09;28.17;91038.38;5021321;28;20033;-66
2022/06/01 11:46:22;;;;;;;1.30;1.20;;;;;;;36.37;30.41;91037.44;5011981;28;20034;-66
2022/06/01 11:49:00;;;;;;;1.63;1.42;;;;;;;35.12;30.78;91027.06;5012106;28;20377;-65
2022/06/01 11:51:48;;;;;;;3.95;1.80;;;;;;;34.42;32.66;91023.22;5011717;28;20034;-66
2022/06/01 11:54:16;;;;;;;2.35;1.52;;;;;;;32.55;34.40;91025.88;5011963;28;20411;-66
2022/06/01 11:56:57;;;;;;;1.30;1.20;;;;;;;30.98;35.88;91024.91;5011953;28;20113;-65
2022/06/01 11:59:34;;;;;;;2.13;1.80;;;;;;;31.53;36.70;91025.75;5011808;28;20522;-65
2022/06/01 12:02:16;;;;;;;1.58;1.48;;;;;;;33.60;34.45;91015.19;5011635;28;20033;-66
2022/06/01 12:05:05;;;;;;;2.25;2.05;;;;;;;34.74;32.35;91021.91;5011641;28;20501;-66
2022/06/01 12:07:35;;;;;;;6.30;4.88;;;;;;;35.70;31.46;91017.88;5013886;28;20053;-65
2022/06/01 12:10:31;;;;;;;3.13;1.80;;;;;;;34.51;32.42;91022.47;5014001;28;20033;-65
2022/06/01 12:13:02;;;;;;;1.90;1.20;;;;;;;31.95;33.99;91012.78;5011525;28;20034;-65
2022/06/01 12:15:34;;;;;;;3.10;1.50;;;;;;;31.37;33.59;91012.06;5011377;28;20029;-65
2022/06/01 12:18:02;;;;;;;3.72;1.48;;;;;;;31.19;34.87;90996.84;5011347;28;20407;-66
2022/06/01 12:20:28;;;;;;;2.28;1.40;;;;;;;31.08;35.03;91001.84;5011582;28;20105;-67
2022/06/01 12:28:56;;;;;;;1.33;1.15;;;;;;;36.24;31.46;91002.38;5031355;28;20615;-66
2022/06/01 12:31:32;;;;;;;1.42;1.20;;;;;;;36.77;29.76;91001.06;5031011;28;20096;-67
2022/06/01 12:34:01;;;;;;;1.45;1.10;;;;;;;36.86;28.70;91003.81;5019000;28;20112;-66
2022/06/01 12:36:36;;;;;;;2.08;1.30;;;;;;;37.39;29.44;91011.50;5020640;28;20040;-65
2022/06/01 12:39:29;;;;;;;2.03;1.10;;;;;;;36.40;29.60;91009.56;5030824;28;20108;-65
2022/06/01 12:42:02;;;;;;;1.95;1.52;;;;;;;34.54;31.69;91005.72;5030780;28;20087;-65
2022/06/01 12:44:47;;;;;;;7.75;1.67;;;;;;;33.47;33.05;91014.53;5030904;28;20025;-68
2022/06/01 12:47:30;;;;;;;1.55;1.08;;;;;;;31.93;33.78;91009.69;5030869;28;20033;-65
2022/06/01 12:50:04;;;;;;;2.80;1.73;;;;;;;30.14;35.24;91014.78;5030857;28;20519;-65
2022/06/01 12:52:31;;;;;;;1.33;1.23;;;;;;;30.93;36.03;91006.97;5027654;28;20773;-65
2022/06/01 12:55:00;;;;;;;3.08;1.58;;;;;;;32.24;33.84;91003.63;5012935;28;20030;-67
2022/06/01 12:57:31;;;;;;;1.52;1.42;;;;;;;31.89;34.09;91003.53;5011264;28;20104;-66
2022/06/01 13:00:08;;;;;;;1.30;1.05;;;;;;;30.90;35.44;90996.81;5010868;28;20077;-68
2022/06/01 13:02:36;;;;;;;6.93;4.85;;;;;;;31.98;33.84;91000.09;5010997;28;20034;-66
2022/06/01 13:05:04;;;;;;;2.20;2.00;;;;;;;32.41;33.99;90992.09;4993393;28;20388;-65
2022/06/01 13:07:39;;;;;;;4.35;2.40;;;;;;;31.03;35.44;90998.84;5010197;28;20026;-67
2022/06/01 13:10:20;;;;;;;9.98;1.30;;;;;;;32.40;34.52;90996.06;5011318;28;20034;-65
2022/06/01 13:12:46;;;;;;;1.70;1.60;;;;;;;33.36;32.94;90992.06;5010886;28;20049;-67
2022/06/01 13:15:13;;;;;;;1.83;1.20;;;;;;;33.71;33.18;91003.00;5010682;28;20495;-67
2022/06/01 13:17:50;;;;;;;8.02;1.35;;;;;;;33.67;31.46;90996.88;5010756;28;20065;-67
2022/06/01 13:20:16;;;;;;;2.10;1.60;;;;;;;32.35;31.50;90991.13;5010562;28;20041;-65
2022/06/01 13:22:46;;;;;;;1.58;1.23;;;;;;;31.05;34.75;90990.94;5010589;28;20030;-64
2022/06/01 13:25:19;;;;;;;1.50;1.40;;;;;;;31.24;35.43;91001.84;5015410;28;20034;-65
2022/06/01 13:27:45;;;;;;;;;;;;;;;32.13;34.00;90985.47;5031225;28;20075;-68
2022/06/01 13:30:15;;;;;;;1.45;1.35;;;;;;;33.00;33.88;90990.53;5031350;28;19986;-64
2022/06/01 13:32:43;;;;;;;1.15;1.05;;;;;;;32.76;32.28;90986.59;5034223;28;20551;-65
2022/06/01 13:35:35;;;;;;;1.13;1.02;;;;;;;31.92;32.24;90990.88;5011561;28;20179;-65
2022/06/01 13:38:03;;;;;;;1.48;1.30;;;;;;;31.61;32.45;90988.59;5016670;28;20025;-68
2022/06/01 13:40:36;;;;;;;1.52;1.30;;;;;;;30.85;33.42;90986.38;5023115;28;20030;-68
2022/06/01 13:43:10;;;;;;;1.25;1.00;;;;;;;30.23;35.04;90984.78;5020982;28;20030;-68
2022/06/01 13:45:40;;;;;;;2.25;1.27;;;;;;;30.58;34.31;90980.38;5013954;28;20036;-67
2022/06/01 13:48:18;;;;;;;2.13;1.50;;;;;;;30.29;34.77;90986.56;5014022;28;20034;-67
2022/06/01 13:50:51;;;;;;;3.08;1.40;;;;;;;30.68;34.41;90985.63;4995857;28;20403;-67
2022/06/01 13:53:29;;;;;;;4.55;2.50;;;;;;;29.59;35.91;90989.72;5013842;28;20590;-69
2022/06/01 13:56:02;;;;;;;3.10;2.17;;;;;;;28.43;37.16;90991.53;5013496;28;20038;-68
2022/06/01 13:58:53;;;;;;;2.05;1.77;;;;;;;27.75;37.69;90983.59;5013873;28;20025;-68
2022/06/01 14:01:43;;;;;;;3.50;2.78;;;;;;;27.89;37.41;90977.91;5013697;28;21083;-69
2022/06/01 14:04:19;;;;;;;1.65;1.30;;;;;;;27.79;37.13;90989.03;5013758;28;20018;-69
2022/06/01 14:06:52;;;;;;;3.28;1.80;;;;;;;28.23;39.27;90991.44;5014349;28;20496;-69
2022/06/01 14:09:28;;;;;;;1.50;1.40;;;;;;;28.74;36.83;90985.91;5021989;28;20026;-69
2022/06/01 14:11:55;;;;;;;6.93;1.95;;;;;;;28.49;37.60;90997.31;5025539;28;20061;-69
2022/06/01 14:14:29;;;;;;;3.97;1.30;;;;;;;28.61;36.50;90992.00;5033137;28;20075;-70
2022/06/01 14:16:57;;;;;;;2.58;1.48;;;;;;;28.39;36.51;90996.28;5030574;28;20495;-69
2022/06/01 14:19:23;;;;;;;5.45;2.35;;;;;;;28.91;38.15;90993.81;5032942;28;20091;-70
2022/06/01 14:21:51;;;;;;;2.53;1.30;;;;;;;28.40;37.27;90984.16;5033296;28;20025;-70
2022/06/01 14:24:21;;;;;;;4.20;1.95;;;;;;;28.27;38.79;90989.47;5015563;28;20056;-69
2022/06/01 14:29:31;;;;;;;4.90;1.40;;;;;;;27.82;37.05;90980.00;5033234;28;20621;-69
2022/06/01 14:31:58;;;;;;;1.30;1.20;;;;;;;27.48;37.11;90978.13;5032834;28;20106;-69
2022/06/01 14:34:25;;;;;;;1.75;1.55;;;;;;;27.31;39.01;90979.13;5033351;28;20029;-69
2022/06/01 14:36:51;;;;;;;3.83;1.75;;;;;;;27.15;38.27;90977.78;5032913;28;20029;-68
2022/06/01 14:39:19;;;;;;;3.53;1.20;;;;;;;26.96;39.67;90969.38;5033205;28;20441;-69
2022/06/01 14:41:46;;;;;;;1.48;1.30;;;;;;;26.91;39.65;90967.88;5032800;28;20026;-69
2022/06/01 14:44:15;;;;;;;1.38;1.27;;;;;;;27.05;39.96;90972.44;5032745;28;20041;-69
2022/06/01 14:46:41;;;;;;;4.20;1.67;;;;;;;26.84;39.84;90971.47;5032656;28;20136;-69
2022/06/01 14:49:07;;;;;;;2.13;1.30;;;;;;;26.51;39.99;90975.75;5032683;28;20542;-69
2022/06/01 14:51:37;;;;;;;2.25;1.70;;;;;;;26.58;40.61;90963.19;5032802;28;20032;-69
2022/06/01 14:54:04;;;;;;;1.65;1.25;;;;;;;26.64;41.54;90972.47;5032868;28;20026;-69
2022/06/01 14:56:30;;;;;;;2.67;1.33;;;;;;;26.55;39.77;90964.78;5032460;28;20048;-69
2022/06/01 14:59:00;;;;;;;2.10;1.30;;;;;;;26.59;40.31;90976.44;5032698;28;20033;-70
2022/06/01 15:01:30;;;;;;;6.38;3.10;;;;;;;26.53;41.21;90978.84;5015122;28;20029;-69
2022/06/01 15:03:57;;;;;;;2.20;2.00;;;;;;;26.54;41.19;90974.94;5032579;28;20048;-69
2022/06/01 15:06:22;;;;;;;2.53;1.20;;;;;;;26.57;41.03;90976.06;5014970;28;20522;-69
2022/06/01 15:08:47;;;;;;;2.10;1.92;;;;;;;26.59;40.13;90979.16;5032455;28;20025;-69
2022/06/01 15:11:14;;;;;;;1.95;1.85;;;;;;;26.61;40.18;90984.22;5032454;28;20112;-69
2022/06/01 15:13:40;;;;;;;3.60;1.58;;;;;;;26.60;40.71;90966.28;5032376;28;20025;-69
2022/06/01 15:16:07;;;;;;;12.40;1.83;;;;;;;26.65;41.33;90984.94;5032321;28;20034;-69
2022/06/01 15:18:41;;;;;;;1.75;1.40;;;;;;;26.44;41.30;90981.25;5031098;28;20033;-68
2022/06/01 15:21:06;;;;;;;1.30;1.20;;;;;;;26.42;40.44;90983.63;5025885;28;20030;-68
2022/06/01 15:23:33;;;;;;;3.95;1.60;;;;;;;26.47;41.14;90993.31;5028169;28;20049;-69
2022/06/01 15:26:00;;;;;;;1.50;1.35;;;;;;;26.46;41.58;90989.03;5027658;28;20052;-69
2022/06/01 15:28:27;;;;;;;3.45;1.65;;;;;;;26.88;40.43;90992.50;5027578;28;20041;-69
2022/06/01 15:39:32;;;;;;;1.67;1.58;;;;;;;27.05;39.72;90997.00;5031907;28;20076;-68
2022/06/01 15:42:01;;;;;;;;;;;;;;;26.77;41.31;91000.78;5031870;28;20052;-69
2022/06/01 15:44:27;;;;;;;4.07;2.05;;;;;;;26.39;42.29;91000.78;5014075;28;20375;-69
2022/06/01 15:46:54;;;;;;;2.53;1.67;;;;;;;26.00;43.57;91001.09;5031834;28;20079;-69
2022/06/01 15:49:20;;;;;;;5.30;2.30;;;;;;;26.01;43.59;91005.38;5031394;28;20400;-68
2022/06/01 15:51:54;;;;;;;12.50;3.75;;;;;;;25.87;45.09;91008.97;5029110;28;20018;-68
2022/06/01 15:54:20;;;;;;;5.63;2.05;;;;;;;25.60;46.03;91005.25;5031308;28;20040;-69
2022/06/01 15:56:46;;;;;;;6.10;2.42;;;;;;;25.58;46.10;91015.78;5031553;28;20041;-68
2022/06/01 15:59:11;;;;;;;2.55;1.88;;;;;;;25.49;46.43;91018.94;5013744;28;20044;-68
2022/06/01 16:01:37;;;;;;;4.35;1.80;;;;;;;25.66;45.80;91014.56;5031549;28;20120;-68
2022/06/01 16:04:03;;;;;;;2.80;2.47;;;;;;;25.68;45.82;91012.22;5031078;28;20025;-70
2022/06/01 16:06:28;;;;;;;2.08;1.67;;;;;;;25.56;45.94;91015.38;5031310;28;20021;-70
2022/06/01 16:08:54;;;;;;;5.00;3.28;;;;;;;25.50;46.60;91025.16;5013477;28;20492;-71
2022/06/01 16:11:22;;;;;;;3.63;2.10;;;;;;;25.36;46.86;91015.88;5031204;28;20052;-72
2022/06/01 16:13:49;;;;;;;3.58;2.05;;;;;;;25.22;47.17;91018.69;5031439;28;20449;-70
2022/06/01 16:16:16;;;;;;;2.53;1.27;;;;;;;25.17;47.26;91019.09;5030274;28;20262;-69
2022/06/01 16:18:45;;;;;;;2.55;2.13;;;;;;;25.03;48.33;91011.75;5023706;28;20057;-74
2022/06/01 16:21:11;;;;;;;1.95;1.75;;;;;;;24.95;47.73;91020.34;5010915;28;20034;-70
2022/06/01 16:23:37;;;;;;;5.20;2.67;;;;;;;24.93;48.21;91014.50;5011168;28;20061;-68
2022/06/01 16:26:03;;;;;;;3.50;1.88;;;;;;;24.72;48.24;91016.13;5011300;28;20109;-70
2022/06/01 16:28:28;;;;;;;3.45;2.42;;;;;;;24.68;48.89;91023.53;5023488;28;20467;-70
2022/06/01 16:30:55;;;;;;;2.20;1.95;;;;;;;24.48;49.33;91019.69;5030798;28;20047;-70
2022/06/01 16:33:38;;;;;;;2.78;1.90;;;;;;;24.44;49.89;91022.41;5030862;28;20045;-68
2022/06/01 16:36:09;;;;;;;9.43;5.20;;;;;;;24.34;50.33;91015.06;5030873;28;20068;-68
2022/06/01 16:38:36;;;;;;;4.53;2.63;;;;;;;24.27;50.49;91023.16;5031063;28;20041;-71
2022/06/01 16:41:03;;;;;;;4.35;2.45;;;;;;;24.25;51.15;91022.78;5030049;28;20040;-68
2022/06/01 16:43:40;;;;;;;2.97;2.30;;;;;;;24.31;51.04;91026.72;5030815;28;20139;-68
2022/06/01 16:46:05;;;;;;;7.32;2.97;;;;;;;24.41;51.49;91019.69;5030872;28;20048;-68
2022/06/01 16:48:31;;;;;;;2.25;1.83;;;;;;;24.39;50.50;91024.75;5030738;28;20041;-68
2022/06/01 16:50:59;;;;;;;7.47;2.92;;;;;;;24.34;51.43;91023.22;5030826;28;20045;-67
2022/06/01 16:53:26;;;;;;;4.70;2.20;;;;;;;24.27;50.72;91030.53;5031628;28;20045;-66
2022/06/01 16:55:51;;;;;;;1.38;1.27;;;;;;;23.91;51.41;91036.00;5030654;28;20499;-69
2022/06/01 16:58:18;;;;;;;1.55;1.45;;;;;;;23.68;53.70;91036.38;5030508;28;20131;-69
2022/06/01 17:00:45;;;;;;;1.45;1.35;;;;;;;23.43;54.74;91040.94;5030546;28;20037;-72
2022/06/01 17:03:10;;;;;;;1.30;1.20;;;;;;;23.34;55.78;91035.88;5030456;28;20120;-69
2022/06/01 17:05:36;;;;;;;1.52;1.42;;;;;;;23.15;56.64;91039.69;5032070;28;20525;-69
2022/06/01 17:08:01;;;;;;;2.28;1.42;;;;;;;23.01;57.85;91042.34;5034412;28;20537;-68
2022/06/01 17:10:27;;;;;;;3.33;1.60;;;;;;;22.95;59.00;91041.19;5034441;28;20052;-68
2022/06/01 17:12:53;;;;;;;1.60;1.50;;;;;;;22.82;60.42;91037.22;5033845;28;20090;-69
2022/06/01 17:15:19;;;;;;;2.97;2.05;;;;;;;22.77;61.73;91046.50;5034179;28;20182;-72
2022/06/01 17:17:49;;;;;;;1.40;1.30;;;;;;;22.67;62.66;91050.72;5016283;28;20124;-70
2022/06/01 17:20:28;;;;;;;1.95;1.75;;;;;;;22.52;64.43;91051.00;5034185;28;20072;-69
2022/06/01 17:22:54;;;;;;;7.32;1.58;;;;;;;22.40;65.81;91052.88;5034067;28;20049;-71
2022/06/01 17:25:21;;;;;;;2.53;2.03;;;;;;;22.28;67.48;91049.72;5034118;28;20041;-68
2022/06/01 17:27:47;;;;;;;1.63;1.30;;;;;;;22.20;68.30;91054.28;5033639;28;20112;-70
2022/06/01 17:30:14;;;;;;;2.03;1.65;;;;;;;22.10;70.06;91057.72;5033851;28;20052;-67
2022/06/01 17:32:43;;;;;;;1.52;1.30;;;;;;;21.99;71.95;91052.19;5016011;28;20080;-68
2022/06/01 17:35:12;;;;;;;3.95;2.00;;;;;;;21.88;72.54;91058.66;5033930;28;20172;-68
2022/06/01 17:37:38;;;;;;;1.60;1.50;;;;;;;21.80;73.26;91055.91;5033817;28;20083;-68
2022/06/01 17:40:05;;;;;;;1.50;1.40;;;;;;;21.71;73.05;91058.13;5033891;28;20072;-68
2022/06/01 17:42:31;;;;;;;1.67;1.58;;;;;;;21.66;72.74;91066.59;5033536;28;20120;-67
2022/06/01 17:44:57;;;;;;;2.15;1.80;;;;;;;21.58;73.70;91064.19;5033679;28;20511;-69
2022/06/01 17:47:24;;;;;;;1.83;1.65;;;;;;;21.50;74.49;91064.13;5033511;28;20115;-68
2022/06/01 17:49:50;;;;;;;1.67;1.40;;;;;;;21.42;75.34;91062.47;5033638;28;20037;-68
2022/06/01 17:52:16;;;;;;;3.08;2.17;;;;;;;21.33;76.17;91059.31;5033564;28;20033;-71
2022/06/01 17:54:41;;;;;;;10.35;6.28;;;;;;;21.26;76.20;91069.28;5033572;28;20041;-68
2022/06/01 17:57:07;;;;;;;2.53;2.20;;;;;;;21.16;75.99;91057.94;5032475;28;20042;-67
2022/06/01 17:59:33;;;;;;;2.25;1.45;;;;;;;21.11;75.96;91065.59;5032170;28;20037;-67
2022/06/01 18:01:58;;;;;;;1.50;1.40;;;;;;;21.02;76.59;91063.19;5033314;28;20112;-67
2022/06/01 18:04:24;;;;;;;1.40;1.30;;;;;;;21.00;77.15;91070.13;5033321;28;20120;-66
2022/06/01 18:06:50;;;;;;;2.97;1.73;;;;;;;20.83;79.49;91072.25;5033285;28;20048;-67
2022/06/01 18:09:18;;;;;;;2.03;1.83;;;;;;;20.71;79.85;91072.47;5033313;28;20041;-68
2022/06/01 18:11:44;;;;;;;1.73;1.50;;;;;;;20.62;80.38;91080.84;5014932;28;20422;-66
2022/06/01 18:14:10;;;;;;;1.73;1.63;;;;;;;20.61;80.30;91073.09;5033198;28;20034;-66
2022/06/01 18:16:39;;;;;;;2.10;1.77;;;;;;;20.52;81.84;91081.50;5032583;28;20073;-66
2022/06/01 18:19:05;;;;;;;3.60;2.67;;;;;;;20.52;80.41;91078.00;5032977;28;20495;-66
2022/06/01 18:21:31;;;;;;;4.22;2.33;;;;;;;20.47;81.24;91089.13;5032927;28;20104;-66
2022/06/01 18:23:56;;;;;;;1.60;1.50;;;;;;;20.33;82.61;91082.34;5033017;28;20045;-67
2022/06/01 18:26:24;;;;;;;4.60;1.70;;;;;;;20.26;84.99;91086.88;5032574;28;20514;-66
2022/06/01 18:28:50;;;;;;;1.80;1.70;;;;;;;20.19;84.81;91092.16;5030080;28;20065;-67
2022/06/01 18:31:27;;;;;;;3.00;1.85;;;;;;;20.18;85.21;91093.28;5032678;28;20541;-66
2022/06/01 18:33:54;;;;;;;1.67;1.58;;;;;;;20.14;86.48;91092.47;5032773;28;20040;-67
2022/06/01 18:36:22;;;;;;;1.52;1.42;;;;;;;20.03;87.85;91097.69;5032897;28;20033;-67
2022/06/01 18:38:48;;;;;;;1.80;1.50;;;;;;;19.99;88.81;91097.63;5032645;28;20088;-66
2022/06/01 18:41:14;;;;;;;1.60;1.50;;;;;;;19.92;90.78;91102.94;5031670;28;20091;-66
2022/06/01 18:43:42;;;;;;;3.75;1.88;;;;;;;19.89;90.73;91100.97;5023235;28;20040;-66
2022/06/01 18:46:08;;;;;;;3.10;2.65;;;;;;;19.81;92.37;91104.66;5018731;28;20033;-66
2022/06/01 18:48:35;;;;;;;2.30;2.10;;;;;;;19.78;93.53;91107.31;5032755;28;20484;-67
2022/06/01 18:51:02;;;;;;;3.40;1.58;;;;;;;19.73;94.57;91114.59;5032677;28;20130;-67
2022/06/01 18:53:28;;;;;;;5.25;2.72;;;;;;;19.66;97.48;91113.66;5032611;28;20047;-67
2022/06/01 18:55:55;;;;;;;3.97;2.20;;;;;;;19.54;99.44;91109.22;5032673;28;20045;-66
2022/06/01 18:58:21;;;;;;;3.50;2.10;;;;;;;19.42;100.00;91115.53;5026788;28;20502;-66
2022/06/01 19:03:33;;;;;;;4.10;2.60;;;;;;;19.27;100.00;91121.81;5031991;28;20527;-65
2022/06/01 19:06:01;;;;;;;4.45;2.10;;;;;;;19.14;100.00;91123.09;5032478;28;20499;-65
2022/06/01 19:08:28;;;;;;;3.28;2.70;;;;;;;19.05;100.00;91130.59;5032356;28;20128;-66
2022/06/01 19:11:06;;;;;;;2.65;2.45;;;;;;;18.92;100.00;91124.56;5032637;28;20411;-66
2022/06/01 19:13:33;;;;;;;2.92;2.20;;;;;;;18.79;100.00;91123.16;5032175;28;20048;-65
2022/06/01 19:16:23;;;;;;;2.70;2.30;;;;;;;18.80;100.00;91127.41;5023963;28;20033;-66
2022/06/01 19:18:48;;;;;;;6.82;3.75;;;;;;;18.79;100.00;91126.63;5012306;28;20041;-66
2022/06/01 19:21:14;;;;;;;8.57;4.10;;;;;;;18.76;100.00;91132.72;5012241;28;20568;-66
2022/06/01 19:23:40;;;;;;;7.07;3.90;;;;;;;18.72;100.00;91129.16;5011923;28;20029;-67
2022/06/01 19:26:07;;;;;;;5.65;2.80;;;;;;;18.67;100.00;91132.16;5021652;28;20469;-70
2022/06/01 19:28:40;;;;;;;4.20;2.97;;;;;;;18.50;100.00;91133.28;5028885;28;20043;-69
2022/06/01 19:31:06;;;;;;;5.93;2.45;;;;;;;18.30;100.00;91126.28;5029476;28;20080;-72
2022/06/01 19:33:32;;;;;;;3.30;2.95;;;;;;;18.19;100.00;91139.53;5031309;28;20049;-69
2022/06/01 19:44:51;;;;;;;3.25;1.98;;;;;;;17.78;100.00;91137.34;5051610;28;20052;-66
2022/06/01 19:47:16;;;;;;;3.20;2.20;;;;;;;17.76;100.00;91142.31;5051253;28;20041;-66
2022/06/01 19:49:43;;;;;;;3.15;2.45;;;;;;;17.67;100.00;91135.16;5051452;28;20474;-66
2022/06/01 19:52:12;;;;;;;6.13;3.55;;;;;;;17.66;100.00;91138.97;5031264;28;20046;-67
2022/06/01 19:54:37;;;;;;;2.53;2.15;;;;;;;17.63;100.00;91128.13;5031397;28;20048;-67
2022/06/01 19:57:03;;;;;;;3.50;2.47;;;;;;;17.60;100.00;91129.59;5031265;28;20029;-66
2022/06/01 19:59:29;;;;;;;4.40;2.63;;;;;;;17.53;100.00;91126.75;5031067;28;20045;-66
2022/06/01 20:01:56;;;;;;;3.47;2.42;;;;;;;17.42;100.00;91122.22;5031273;28;20092;-66
2022/06/01 20:04:21;;;;;;;2.80;2.00;;;;;;;17.39;100.00;91129.06;5031165;28;20040;-66
2022/06/01 20:06:47;;;;;;;4.80;2.65;;;;;;;17.39;100.00;91121.00;5031293;28;20038;-66
2022/06/01 20:09:13;;;;;;;2.20;1.98;;;;;;;17.42;100.00;91124.91;4997453;28;20037;-66